Decoded Metar for TFFR (POINTE-A-PITRE in ANTILLES) (IATA:PTP) | Meteo·Mobile Aviation Weather
aviador You're here:

TFFR Decoded Metar

POINTE-A-PITRE in ANTILLES
Report Time2018-08-21 22:00:00
UTC Time2018-08-21 22:18:47
Flight Rules mvfr MVFR
Wind100° at 09 kt
W.Decomp.*RWY 12: 9.0 kt HW 0.8 kt LCW
W.Rank100° ranks 2
Current wind is above 100° avg. (7.0)
Visibility9999 m
Phenomena:Thuderstorm Rain
Clouds:N/A
Expected CloudBase > 1,200 ft AGL from Temp-Dew spread
Ceiling1,200 ft
Temp27°C (ISA +12)
Dew Point24°C (84% RH)
Heat Index30.1°C
QNH1016 hPa
Density Alt1,719 ft
Elevation36 ft
Report Wrong Elevation
Raw Report
METAR TFFR 212200Z AUTO 10009KT 9999 ///TCU 27/24 Q1016 TEMPO VRB15G25KT
1000 TSRA BKN012CB=

Extra information for TFFR:More info

Metar Taf Metar & Taf Last 4 Metars F.Rules Stats Wind Profile Meteogram Temp Stats Airport Information Weather charts Add Link Nearby VenuesMetar ALERT Operation Metar Decoded Social comments